sensor_id;sensor_type;location;lat;lon;timestamp;P1;durP1;ratioP1;P2;durP2;ratioP2
79348;SDS011;68817;48.110;11.660;2024-03-02T00:00:56;10.43;;;6.47;;
79348;SDS011;68817;48.110;11.660;2024-03-02T00:03:22;10.68;;;6.95;;
79348;SDS011;68817;48.110;11.660;2024-03-02T00:05:50;9.57;;;6.40;;
79348;SDS011;68817;48.110;11.660;2024-03-02T00:08:23;10.00;;;6.43;;
79348;SDS011;68817;48.110;11.660;2024-03-02T00:10:50;11.88;;;7.00;;
79348;SDS011;68817;48.110;11.660;2024-03-02T00:13:16;9.93;;;6.32;;
79348;SDS011;68817;48.110;11.660;2024-03-02T00:15:48;8.82;;;6.28;;
79348;SDS011;68817;48.110;11.660;2024-03-02T00:18:27;9.35;;;5.90;;
79348;SDS011;68817;48.110;11.660;2024-03-02T00:20:56;9.07;;;6.07;;
79348;SDS011;68817;48.110;11.660;2024-03-02T00:23:26;9.50;;;6.28;;
79348;SDS011;68817;48.110;11.660;2024-03-02T00:25:55;8.95;;;5.75;;
79348;SDS011;68817;48.110;11.660;2024-03-02T00:28:24;8.15;;;6.00;;
79348;SDS011;68817;48.110;11.660;2024-03-02T00:30:52;7.97;;;5.70;;
79348;SDS011;68817;48.110;11.660;2024-03-02T00:33:19;8.25;;;5.65;;
79348;SDS011;68817;48.110;11.660;2024-03-02T00:35:46;9.20;;;5.28;;
79348;SDS011;68817;48.110;11.660;2024-03-02T00:38:11;11.07;;;5.80;;
79348;SDS011;68817;48.110;11.660;2024-03-02T00:40:38;8.80;;;5.57;;
79348;SDS011;68817;48.110;11.660;2024-03-02T00:43:03;8.93;;;6.13;;
79348;SDS011;68817;48.110;11.660;2024-03-02T00:45:29;8.63;;;5.80;;
79348;SDS011;68817;48.110;11.660;2024-03-02T00:47:55;8.35;;;6.13;;
79348;SDS011;68817;48.110;11.660;2024-03-02T00:50:20;8.32;;;5.57;;
79348;SDS011;68817;48.110;11.660;2024-03-02T00:52:46;8.27;;;6.10;;
79348;SDS011;68817;48.110;11.660;2024-03-02T00:55:13;8.93;;;5.75;;
79348;SDS011;68817;48.110;11.660;2024-03-02T00:57:39;8.63;;;5.72;;
79348;SDS011;68817;48.110;11.660;2024-03-02T01:00:05;8.07;;;5.90;;
79348;SDS011;68817;48.110;11.660;2024-03-02T01:02:34;7.38;;;5.70;;
79348;SDS011;68817;48.110;11.660;2024-03-02T01:05:00;8.60;;;5.70;;
79348;SDS011;68817;48.110;11.660;2024-03-02T01:07:25;9.10;;;5.22;;
79348;SDS011;68817;48.110;11.660;2024-03-02T01:09:51;9.20;;;6.07;;
79348;SDS011;68817;48.110;11.660;2024-03-02T01:12:16;7.75;;;4.85;;
79348;SDS011;68817;48.110;11.660;2024-03-02T01:14:42;7.60;;;5.25;;
79348;SDS011;68817;48.110;11.660;2024-03-02T01:17:07;8.60;;;5.40;;
79348;SDS011;68817;48.110;11.660;2024-03-02T01:19:33;8.15;;;5.43;;
79348;SDS011;68817;48.110;11.660;2024-03-02T01:21:58;6.88;;;4.85;;
79348;SDS011;68817;48.110;11.660;2024-03-02T01:24:24;7.63;;;5.32;;
79348;SDS011;68817;48.110;11.660;2024-03-02T01:26:49;7.80;;;5.22;;
79348;SDS011;68817;48.110;11.660;2024-03-02T01:29:15;9.00;;;5.47;;
79348;SDS011;68817;48.110;11.660;2024-03-02T01:31:41;7.82;;;5.13;;
79348;SDS011;68817;48.110;11.660;2024-03-02T01:34:07;9.57;;;5.30;;
79348;SDS011;68817;48.110;11.660;2024-03-02T01:36:33;7.78;;;5.38;;
79348;SDS011;68817;48.110;11.660;2024-03-02T01:38:59;8.57;;;5.65;;
79348;SDS011;68817;48.110;11.660;2024-03-02T01:41:24;8.38;;;5.40;;
79348;SDS011;68817;48.110;11.660;2024-03-02T01:43:50;7.07;;;4.63;;
79348;SDS011;68817;48.110;11.660;2024-03-02T01:46:15;7.53;;;5.03;;
79348;SDS011;68817;48.110;11.660;2024-03-02T01:48:41;7.15;;;4.97;;
79348;SDS011;68817;48.110;11.660;2024-03-02T01:51:06;8.30;;;5.15;;
79348;SDS011;68817;48.110;11.660;2024-03-02T01:53:32;8.32;;;5.50;;
79348;SDS011;68817;48.110;11.660;2024-03-02T01:55:57;7.97;;;4.85;;
79348;SDS011;68817;48.110;11.660;2024-03-02T01:58:23;8.25;;;5.18;;
79348;SDS011;68817;48.110;11.660;2024-03-02T02:00:48;7.72;;;5.10;;
79348;SDS011;68817;48.110;11.660;2024-03-02T02:03:14;7.55;;;5.03;;
79348;SDS011;68817;48.110;11.660;2024-03-02T02:05:41;8.48;;;5.00;;
79348;SDS011;68817;48.110;11.660;2024-03-02T02:08:07;7.78;;;4.80;;
79348;SDS011;68817;48.110;11.660;2024-03-02T02:10:32;7.25;;;5.20;;
79348;SDS011;68817;48.110;11.660;2024-03-02T02:12:58;7.70;;;4.95;;
79348;SDS011;68817;48.110;11.660;2024-03-02T02:17:52;7.90;;;4.72;;
79348;SDS011;68817;48.110;11.660;2024-03-02T02:20:19;7.35;;;4.63;;
79348;SDS011;68817;48.110;11.660;2024-03-02T02:25:18;9.77;;;5.25;;
79348;SDS011;68817;48.110;11.660;2024-03-02T02:27:44;7.05;;;5.28;;
79348;SDS011;68817;48.110;11.660;2024-03-02T02:30:10;7.43;;;4.85;;
79348;SDS011;68817;48.110;11.660;2024-03-02T02:32:35;6.75;;;5.18;;
79348;SDS011;68817;48.110;11.660;2024-03-02T02:35:01;6.90;;;4.90;;
79348;SDS011;68817;48.110;11.660;2024-03-02T02:37:26;8.73;;;5.38;;
79348;SDS011;68817;48.110;11.660;2024-03-02T02:39:52;7.65;;;5.40;;
79348;SDS011;68817;48.110;11.660;2024-03-02T02:42:17;8.35;;;5.63;;
79348;SDS011;68817;48.110;11.660;2024-03-02T02:44:43;6.30;;;5.13;;
79348;SDS011;68817;48.110;11.660;2024-03-02T02:47:09;8.73;;;5.30;;
79348;SDS011;68817;48.110;11.660;2024-03-02T02:49:34;8.90;;;5.60;;
79348;SDS011;68817;48.110;11.660;2024-03-02T02:52:00;8.05;;;5.43;;
79348;SDS011;68817;48.110;11.660;2024-03-02T02:54:25;9.63;;;6.05;;
79348;SDS011;68817;48.110;11.660;2024-03-02T02:56:50;8.35;;;5.38;;
79348;SDS011;68817;48.110;11.660;2024-03-02T02:59:16;8.68;;;5.78;;
79348;SDS011;68817;48.110;11.660;2024-03-02T03:01:41;8.68;;;5.50;;
79348;SDS011;68817;48.110;11.660;2024-03-02T03:04:07;9.75;;;6.20;;
79348;SDS011;68817;48.110;11.660;2024-03-02T03:06:32;8.75;;;6.22;;
79348;SDS011;68817;48.110;11.660;2024-03-02T03:08:57;9.80;;;6.57;;
79348;SDS011;68817;48.110;11.660;2024-03-02T03:11:23;8.35;;;5.55;;
79348;SDS011;68817;48.110;11.660;2024-03-02T03:13:49;9.07;;;6.00;;
79348;SDS011;68817;48.110;11.660;2024-03-02T03:16:15;9.77;;;6.78;;
79348;SDS011;68817;48.110;11.660;2024-03-02T03:18:41;8.40;;;5.72;;
79348;SDS011;68817;48.110;11.660;2024-03-02T03:21:06;9.85;;;6.03;;
79348;SDS011;68817;48.110;11.660;2024-03-02T03:23:32;8.55;;;5.65;;
79348;SDS011;68817;48.110;11.660;2024-03-02T03:25:57;8.20;;;5.88;;
79348;SDS011;68817;48.110;11.660;2024-03-02T03:28:23;7.82;;;5.43;;
79348;SDS011;68817;48.110;11.660;2024-03-02T03:30:48;11.02;;;5.93;;
79348;SDS011;68817;48.110;11.660;2024-03-02T03:33:13;9.57;;;6.07;;
79348;SDS011;68817;48.110;11.660;2024-03-02T03:35:39;8.00;;;5.80;;
79348;SDS011;68817;48.110;11.660;2024-03-02T03:38:04;9.68;;;6.15;;
79348;SDS011;68817;48.110;11.660;2024-03-02T03:40:30;8.50;;;5.20;;
79348;SDS011;68817;48.110;11.660;2024-03-02T03:42:55;8.35;;;5.85;;
79348;SDS011;68817;48.110;11.660;2024-03-02T03:45:22;8.77;;;6.00;;
79348;SDS011;68817;48.110;11.660;2024-03-02T03:47:47;9.40;;;6.60;;
79348;SDS011;68817;48.110;11.660;2024-03-02T03:50:12;9.02;;;5.97;;
79348;SDS011;68817;48.110;11.660;2024-03-02T03:52:38;8.18;;;5.82;;
79348;SDS011;68817;48.110;11.660;2024-03-02T03:55:03;9.25;;;6.22;;
79348;SDS011;68817;48.110;11.660;2024-03-02T03:57:30;7.95;;;5.95;;
79348;SDS011;68817;48.110;11.660;2024-03-02T03:59:55;9.57;;;6.13;;
79348;SDS011;68817;48.110;11.660;2024-03-02T04:02:21;8.77;;;5.72;;
79348;SDS011;68817;48.110;11.660;2024-03-02T04:04:46;8.73;;;5.75;;
79348;SDS011;68817;48.110;11.660;2024-03-02T04:07:12;10.13;;;6.30;;
79348;SDS011;68817;48.110;11.660;2024-03-02T04:09:37;8.63;;;5.88;;
79348;SDS011;68817;48.110;11.660;2024-03-02T04:12:03;9.60;;;6.72;;
79348;SDS011;68817;48.110;11.660;2024-03-02T04:14:28;7.78;;;6.28;;
79348;SDS011;68817;48.110;11.660;2024-03-02T04:16:54;9.43;;;6.72;;
79348;SDS011;68817;48.110;11.660;2024-03-02T04:19:19;8.93;;;6.25;;
79348;SDS011;68817;48.110;11.660;2024-03-02T04:21:45;8.13;;;5.47;;
79348;SDS011;68817;48.110;11.660;2024-03-02T04:24:10;9.15;;;6.57;;
79348;SDS011;68817;48.110;11.660;2024-03-02T04:26:35;9.45;;;6.38;;
79348;SDS011;68817;48.110;11.660;2024-03-02T04:29:01;8.90;;;6.07;;
79348;SDS011;68817;48.110;11.660;2024-03-02T04:31:27;8.85;;;6.13;;
79348;SDS011;68817;48.110;11.660;2024-03-02T04:33:52;9.02;;;6.35;;
79348;SDS011;68817;48.110;11.660;2024-03-02T04:36:18;10.63;;;6.55;;
79348;SDS011;68817;48.110;11.660;2024-03-02T04:38:44;9.13;;;5.80;;
79348;SDS011;68817;48.110;11.660;2024-03-02T04:41:09;10.68;;;6.45;;
79348;SDS011;68817;48.110;11.660;2024-03-02T04:43:35;11.48;;;7.18;;
79348;SDS011;68817;48.110;11.660;2024-03-02T04:46:00;10.70;;;6.72;;
79348;SDS011;68817;48.110;11.660;2024-03-02T04:48:26;10.25;;;6.93;;
79348;SDS011;68817;48.110;11.660;2024-03-02T04:50:52;10.68;;;7.00;;
79348;SDS011;68817;48.110;11.660;2024-03-02T04:53:17;11.07;;;6.97;;
79348;SDS011;68817;48.110;11.660;2024-03-02T04:55:43;10.50;;;6.75;;
79348;SDS011;68817;48.110;11.660;2024-03-02T04:58:08;8.73;;;6.30;;
79348;SDS011;68817;48.110;11.660;2024-03-02T05:00:34;10.65;;;7.03;;
79348;SDS011;68817;48.110;11.660;2024-03-02T05:02:59;10.43;;;6.88;;
79348;SDS011;68817;48.110;11.660;2024-03-02T05:05:25;10.63;;;6.97;;
79348;SDS011;68817;48.110;11.660;2024-03-02T05:07:51;10.77;;;7.03;;
79348;SDS011;68817;48.110;11.660;2024-03-02T05:10:16;10.57;;;7.18;;
79348;SDS011;68817;48.110;11.660;2024-03-02T05:12:42;10.70;;;6.55;;
79348;SDS011;68817;48.110;11.660;2024-03-02T05:15:07;10.25;;;6.85;;
79348;SDS011;68817;48.110;11.660;2024-03-02T05:17:37;9.80;;;7.00;;
79348;SDS011;68817;48.110;11.660;2024-03-02T05:20:06;10.95;;;7.40;;
79348;SDS011;68817;48.110;11.660;2024-03-02T05:22:33;11.10;;;7.18;;
79348;SDS011;68817;48.110;11.660;2024-03-02T05:24:59;11.85;;;6.75;;
79348;SDS011;68817;48.110;11.660;2024-03-02T05:27:25;11.15;;;7.28;;
79348;SDS011;68817;48.110;11.660;2024-03-02T05:29:51;12.38;;;7.13;;
79348;SDS011;68817;48.110;11.660;2024-03-02T05:32:17;12.00;;;7.15;;
79348;SDS011;68817;48.110;11.660;2024-03-02T05:34:42;11.68;;;7.20;;
79348;SDS011;68817;48.110;11.660;2024-03-02T05:37:08;10.63;;;7.43;;
79348;SDS011;68817;48.110;11.660;2024-03-02T05:39:33;11.55;;;7.47;;
79348;SDS011;68817;48.110;11.660;2024-03-02T05:41:59;12.60;;;7.60;;
79348;SDS011;68817;48.110;11.660;2024-03-02T05:44:24;12.15;;;7.32;;
79348;SDS011;68817;48.110;11.660;2024-03-02T05:46:49;10.60;;;7.25;;
79348;SDS011;68817;48.110;11.660;2024-03-02T05:49:15;12.10;;;7.18;;
79348;SDS011;68817;48.110;11.660;2024-03-02T05:51:41;12.23;;;7.05;;
79348;SDS011;68817;48.110;11.660;2024-03-02T05:54:06;11.65;;;7.90;;
79348;SDS011;68817;48.110;11.660;2024-03-02T05:56:32;15.02;;;8.52;;
79348;SDS011;68817;48.110;11.660;2024-03-02T05:58:58;10.98;;;7.40;;
79348;SDS011;68817;48.110;11.660;2024-03-02T06:01:39;11.73;;;7.38;;
79348;SDS011;68817;48.110;11.660;2024-03-02T06:04:04;13.70;;;8.02;;
79348;SDS011;68817;48.110;11.660;2024-03-02T06:06:30;12.95;;;7.97;;
79348;SDS011;68817;48.110;11.660;2024-03-02T06:08:57;12.32;;;8.35;;
79348;SDS011;68817;48.110;11.660;2024-03-02T06:11:23;11.30;;;7.75;;
79348;SDS011;68817;48.110;11.660;2024-03-02T06:13:49;14.40;;;8.68;;
79348;SDS011;68817;48.110;11.660;2024-03-02T06:16:15;12.38;;;7.82;;
79348;SDS011;68817;48.110;11.660;2024-03-02T06:18:40;13.13;;;8.25;;
79348;SDS011;68817;48.110;11.660;2024-03-02T06:21:06;11.93;;;8.27;;
79348;SDS011;68817;48.110;11.660;2024-03-02T06:23:31;12.23;;;8.07;;
79348;SDS011;68817;48.110;11.660;2024-03-02T06:25:57;11.70;;;7.35;;
79348;SDS011;68817;48.110;11.660;2024-03-02T06:28:22;13.02;;;8.18;;
79348;SDS011;68817;48.110;11.660;2024-03-02T06:30:48;11.50;;;8.40;;
79348;SDS011;68817;48.110;11.660;2024-03-02T06:33:13;12.30;;;8.48;;
79348;SDS011;68817;48.110;11.660;2024-03-02T06:35:38;12.77;;;7.88;;
79348;SDS011;68817;48.110;11.660;2024-03-02T06:38:04;12.52;;;8.30;;
79348;SDS011;68817;48.110;11.660;2024-03-02T06:40:29;13.63;;;8.20;;
79348;SDS011;68817;48.110;11.660;2024-03-02T06:42:55;18.00;;;9.10;;
79348;SDS011;68817;48.110;11.660;2024-03-02T06:45:20;13.10;;;7.60;;
79348;SDS011;68817;48.110;11.660;2024-03-02T06:47:46;13.35;;;8.23;;
79348;SDS011;68817;48.110;11.660;2024-03-02T06:50:11;14.02;;;8.32;;
79348;SDS011;68817;48.110;11.660;2024-03-02T06:52:37;11.77;;;7.68;;
79348;SDS011;68817;48.110;11.660;2024-03-02T06:55:02;12.30;;;8.10;;
79348;SDS011;68817;48.110;11.660;2024-03-02T06:57:29;16.90;;;8.70;;
79348;SDS011;68817;48.110;11.660;2024-03-02T06:59:55;14.82;;;9.05;;
79348;SDS011;68817;48.110;11.660;2024-03-02T07:02:23;13.95;;;8.50;;
79348;SDS011;68817;48.110;11.660;2024-03-02T07:04:50;12.48;;;9.10;;
79348;SDS011;68817;48.110;11.660;2024-03-02T07:07:16;13.68;;;9.13;;
79348;SDS011;68817;48.110;11.660;2024-03-02T07:09:41;12.60;;;8.15;;
79348;SDS011;68817;48.110;11.660;2024-03-02T07:12:07;11.65;;;7.93;;
79348;SDS011;68817;48.110;11.660;2024-03-02T07:14:32;11.55;;;8.48;;
79348;SDS011;68817;48.110;11.660;2024-03-02T07:17:20;13.07;;;8.20;;
79348;SDS011;68817;48.110;11.660;2024-03-02T07:19:46;12.13;;;8.38;;
79348;SDS011;68817;48.110;11.660;2024-03-02T07:22:11;12.15;;;7.85;;
79348;SDS011;68817;48.110;11.660;2024-03-02T07:24:43;12.45;;;7.78;;
79348;SDS011;68817;48.110;11.660;2024-03-02T07:27:11;13.18;;;8.48;;
79348;SDS011;68817;48.110;11.660;2024-03-02T07:29:37;14.27;;;8.10;;
79348;SDS011;68817;48.110;11.660;2024-03-02T07:32:04;13.20;;;9.02;;
79348;SDS011;68817;48.110;11.660;2024-03-02T07:34:29;12.38;;;8.23;;
79348;SDS011;68817;48.110;11.660;2024-03-02T07:36:55;12.82;;;8.80;;
79348;SDS011;68817;48.110;11.660;2024-03-02T07:39:21;13.73;;;9.02;;
79348;SDS011;68817;48.110;11.660;2024-03-02T07:41:46;15.40;;;8.82;;
79348;SDS011;68817;48.110;11.660;2024-03-02T07:44:12;14.68;;;9.80;;
79348;SDS011;68817;48.110;11.660;2024-03-02T07:46:43;13.65;;;9.02;;
79348;SDS011;68817;48.110;11.660;2024-03-02T07:49:12;14.82;;;9.57;;
79348;SDS011;68817;48.110;11.660;2024-03-02T07:51:39;16.48;;;9.43;;
79348;SDS011;68817;48.110;11.660;2024-03-02T07:54:04;15.13;;;10.02;;
79348;SDS011;68817;48.110;11.660;2024-03-02T07:56:30;15.23;;;9.90;;
79348;SDS011;68817;48.110;11.660;2024-03-02T07:58:55;15.95;;;9.50;;
79348;SDS011;68817;48.110;11.660;2024-03-02T08:01:22;13.88;;;9.27;;
79348;SDS011;68817;48.110;11.660;2024-03-02T08:03:48;14.68;;;9.32;;
79348;SDS011;68817;48.110;11.660;2024-03-02T08:06:15;15.57;;;10.13;;
79348;SDS011;68817;48.110;11.660;2024-03-02T08:08:45;13.70;;;9.07;;
79348;SDS011;68817;48.110;11.660;2024-03-02T08:11:11;13.45;;;8.25;;
79348;SDS011;68817;48.110;11.660;2024-03-02T08:13:36;13.85;;;9.18;;
79348;SDS011;68817;48.110;11.660;2024-03-02T08:16:02;14.15;;;8.52;;
79348;SDS011;68817;48.110;11.660;2024-03-02T08:18:28;15.23;;;8.93;;
79348;SDS011;68817;48.110;11.660;2024-03-02T08:20:53;12.82;;;8.10;;
79348;SDS011;68817;48.110;11.660;2024-03-02T08:23:19;14.40;;;8.73;;
79348;SDS011;68817;48.110;11.660;2024-03-02T08:25:45;13.63;;;8.70;;
79348;SDS011;68817;48.110;11.660;2024-03-02T08:28:11;15.02;;;8.75;;
79348;SDS011;68817;48.110;11.660;2024-03-02T08:30:36;11.05;;;7.63;;
79348;SDS011;68817;48.110;11.660;2024-03-02T08:33:01;13.15;;;7.32;;
79348;SDS011;68817;48.110;11.660;2024-03-02T08:35:27;12.55;;;7.75;;
79348;SDS011;68817;48.110;11.660;2024-03-02T08:37:53;13.48;;;9.00;;
79348;SDS011;68817;48.110;11.660;2024-03-02T08:40:18;14.10;;;9.20;;
79348;SDS011;68817;48.110;11.660;2024-03-02T08:42:44;14.05;;;8.82;;
79348;SDS011;68817;48.110;11.660;2024-03-02T08:45:10;13.25;;;8.35;;
79348;SDS011;68817;48.110;11.660;2024-03-02T08:47:36;12.90;;;8.65;;
79348;SDS011;68817;48.110;11.660;2024-03-02T08:50:01;12.80;;;7.68;;
79348;SDS011;68817;48.110;11.660;2024-03-02T08:52:26;12.23;;;7.68;;
79348;SDS011;68817;48.110;11.660;2024-03-02T08:54:52;11.20;;;7.82;;
79348;SDS011;68817;48.110;11.660;2024-03-02T08:57:17;10.18;;;6.75;;
79348;SDS011;68817;48.110;11.660;2024-03-02T08:59:43;11.10;;;7.22;;
79348;SDS011;68817;48.110;11.660;2024-03-02T09:02:09;11.02;;;6.95;;
79348;SDS011;68817;48.110;11.660;2024-03-02T09:04:34;10.43;;;6.63;;
79348;SDS011;68817;48.110;11.660;2024-03-02T09:07:00;8.85;;;5.88;;
79348;SDS011;68817;48.110;11.660;2024-03-02T09:09:25;9.50;;;6.15;;
79348;SDS011;68817;48.110;11.660;2024-03-02T09:11:51;8.85;;;5.40;;
79348;SDS011;68817;48.110;11.660;2024-03-02T09:14:16;8.48;;;4.78;;
79348;SDS011;68817;48.110;11.660;2024-03-02T09:16:42;7.35;;;4.60;;
79348;SDS011;68817;48.110;11.660;2024-03-02T09:19:07;5.90;;;3.97;;
79348;SDS011;68817;48.110;11.660;2024-03-02T09:21:33;6.07;;;4.22;;
79348;SDS011;68817;48.110;11.660;2024-03-02T09:23:58;7.13;;;3.95;;
79348;SDS011;68817;48.110;11.660;2024-03-02T09:26:23;10.40;;;4.93;;
79348;SDS011;68817;48.110;11.660;2024-03-02T09:28:50;8.13;;;4.80;;
79348;SDS011;68817;48.110;11.660;2024-03-02T09:31:15;7.85;;;4.97;;
79348;SDS011;68817;48.110;11.660;2024-03-02T09:33:41;6.88;;;4.50;;
79348;SDS011;68817;48.110;11.660;2024-03-02T09:36:16;9.02;;;5.55;;
79348;SDS011;68817;48.110;11.660;2024-03-02T09:38:45;7.25;;;5.18;;
79348;SDS011;68817;48.110;11.660;2024-03-02T09:41:10;8.88;;;5.47;;
79348;SDS011;68817;48.110;11.660;2024-03-02T09:43:37;8.10;;;4.95;;
79348;SDS011;68817;48.110;11.660;2024-03-02T09:46:03;8.95;;;5.40;;
79348;SDS011;68817;48.110;11.660;2024-03-02T09:48:28;10.55;;;5.88;;
79348;SDS011;68817;48.110;11.660;2024-03-02T09:50:54;11.15;;;6.85;;
79348;SDS011;68817;48.110;11.660;2024-03-02T09:53:19;9.38;;;5.57;;
79348;SDS011;68817;48.110;11.660;2024-03-02T09:55:46;13.50;;;7.05;;
79348;SDS011;68817;48.110;11.660;2024-03-02T09:58:12;10.02;;;6.13;;
79348;SDS011;68817;48.110;11.660;2024-03-02T10:00:37;9.43;;;5.75;;
79348;SDS011;68817;48.110;11.660;2024-03-02T10:03:03;7.80;;;4.38;;
79348;SDS011;68817;48.110;11.660;2024-03-02T10:05:30;8.25;;;4.78;;
79348;SDS011;68817;48.110;11.660;2024-03-02T10:07:59;10.35;;;5.78;;
79348;SDS011;68817;48.110;11.660;2024-03-02T10:10:26;10.45;;;5.82;;
79348;SDS011;68817;48.110;11.660;2024-03-02T10:13:06;8.80;;;5.90;;
79348;SDS011;68817;48.110;11.660;2024-03-02T10:15:32;11.27;;;6.57;;
79348;SDS011;68817;48.110;11.660;2024-03-02T10:17:58;11.48;;;6.07;;
79348;SDS011;68817;48.110;11.660;2024-03-02T10:20:24;9.77;;;5.82;;
79348;SDS011;68817;48.110;11.660;2024-03-02T10:22:50;11.43;;;7.07;;
79348;SDS011;68817;48.110;11.660;2024-03-02T10:25:28;10.05;;;6.20;;
79348;SDS011;68817;48.110;11.660;2024-03-02T10:27:57;11.13;;;6.60;;
79348;SDS011;68817;48.110;11.660;2024-03-02T10:30:23;10.05;;;6.57;;
79348;SDS011;68817;48.110;11.660;2024-03-02T10:32:49;9.52;;;6.82;;
79348;SDS011;68817;48.110;11.660;2024-03-02T10:35:15;10.57;;;7.18;;
79348;SDS011;68817;48.110;11.660;2024-03-02T10:37:41;12.25;;;7.50;;
79348;SDS011;68817;48.110;11.660;2024-03-02T10:40:07;11.85;;;7.68;;
79348;SDS011;68817;48.110;11.660;2024-03-02T10:42:36;11.27;;;7.07;;
79348;SDS011;68817;48.110;11.660;2024-03-02T10:45:03;11.40;;;7.32;;
79348;SDS011;68817;48.110;11.660;2024-03-02T10:47:30;13.55;;;7.75;;
79348;SDS011;68817;48.110;11.660;2024-03-02T10:49:56;11.32;;;6.97;;
79348;SDS011;68817;48.110;11.660;2024-03-02T10:52:24;11.68;;;6.80;;
79348;SDS011;68817;48.110;11.660;2024-03-02T10:54:50;11.20;;;7.47;;
79348;SDS011;68817;48.110;11.660;2024-03-02T10:57:15;12.55;;;7.35;;
79348;SDS011;68817;48.110;11.660;2024-03-02T10:59:56;10.73;;;7.18;;
79348;SDS011;68817;48.110;11.660;2024-03-02T11:02:22;11.35;;;7.22;;
79348;SDS011;68817;48.110;11.660;2024-03-02T11:04:49;11.98;;;6.85;;
79348;SDS011;68817;48.110;11.660;2024-03-02T11:07:15;8.85;;;5.95;;
79348;SDS011;68817;48.110;11.660;2024-03-02T11:09:42;8.93;;;6.53;;
79348;SDS011;68817;48.110;11.660;2024-03-02T11:14:40;10.18;;;6.72;;
79348;SDS011;68817;48.110;11.660;2024-03-02T11:17:09;9.68;;;6.53;;
79348;SDS011;68817;48.110;11.660;2024-03-02T11:19:36;9.82;;;6.95;;
79348;SDS011;68817;48.110;11.660;2024-03-02T11:22:03;10.63;;;6.63;;
79348;SDS011;68817;48.110;11.660;2024-03-02T11:24:29;11.13;;;6.90;;
79348;SDS011;68817;48.110;11.660;2024-03-02T11:26:59;10.05;;;6.40;;
79348;SDS011;68817;48.110;11.660;2024-03-02T11:32:00;8.15;;;4.93;;
79348;SDS011;68817;48.110;11.660;2024-03-02T11:34:29;9.45;;;6.07;;
79348;SDS011;68817;48.110;11.660;2024-03-02T11:36:55;10.10;;;6.03;;
79348;SDS011;68817;48.110;11.660;2024-03-02T11:39:21;9.50;;;5.80;;
79348;SDS011;68817;48.110;11.660;2024-03-02T11:41:46;9.57;;;5.85;;
79348;SDS011;68817;48.110;11.660;2024-03-02T11:44:12;9.20;;;5.57;;
79348;SDS011;68817;48.110;11.660;2024-03-02T11:46:39;10.50;;;6.20;;
79348;SDS011;68817;48.110;11.660;2024-03-02T11:49:04;10.85;;;6.10;;
79348;SDS011;68817;48.110;11.660;2024-03-02T11:51:31;11.95;;;6.72;;
79348;SDS011;68817;48.110;11.660;2024-03-02T11:53:58;12.73;;;7.20;;
79348;SDS011;68817;48.110;11.660;2024-03-02T11:56:25;13.73;;;7.35;;
79348;SDS011;68817;48.110;11.660;2024-03-02T11:58:52;12.20;;;6.88;;
79348;SDS011;68817;48.110;11.660;2024-03-02T12:01:18;11.48;;;6.55;;
79348;SDS011;68817;48.110;11.660;2024-03-02T12:03:44;12.40;;;7.15;;
79348;SDS011;68817;48.110;11.660;2024-03-02T12:06:10;13.07;;;7.82;;
79348;SDS011;68817;48.110;11.660;2024-03-02T12:08:38;13.98;;;7.28;;
79348;SDS011;68817;48.110;11.660;2024-03-02T12:11:03;12.38;;;7.28;;
79348;SDS011;68817;48.110;11.660;2024-03-02T12:13:29;10.82;;;6.72;;
79348;SDS011;68817;48.110;11.660;2024-03-02T12:15:54;14.63;;;7.25;;
79348;SDS011;68817;48.110;11.660;2024-03-02T12:18:23;9.77;;;6.28;;
79348;SDS011;68817;48.110;11.660;2024-03-02T12:20:49;12.43;;;7.00;;
79348;SDS011;68817;48.110;11.660;2024-03-02T12:23:21;11.68;;;6.47;;
79348;SDS011;68817;48.110;11.660;2024-03-02T12:25:47;10.25;;;6.05;;
79348;SDS011;68817;48.110;11.660;2024-03-02T12:28:12;10.88;;;6.28;;
79348;SDS011;68817;48.110;11.660;2024-03-02T12:30:38;10.27;;;6.55;;
79348;SDS011;68817;48.110;11.660;2024-03-02T12:33:03;10.60;;;6.38;;
79348;SDS011;68817;48.110;11.660;2024-03-02T12:35:30;14.10;;;7.32;;
79348;SDS011;68817;48.110;11.660;2024-03-02T12:37:55;11.68;;;6.20;;
79348;SDS011;68817;48.110;11.660;2024-03-02T12:40:21;8.88;;;5.93;;
79348;SDS011;68817;48.110;11.660;2024-03-02T12:42:48;7.97;;;4.60;;
79348;SDS011;68817;48.110;11.660;2024-03-02T12:45:14;6.30;;;4.05;;
79348;SDS011;68817;48.110;11.660;2024-03-02T12:47:40;7.68;;;4.78;;
79348;SDS011;68817;48.110;11.660;2024-03-02T12:50:06;8.82;;;5.18;;
79348;SDS011;68817;48.110;11.660;2024-03-02T12:52:32;10.45;;;5.38;;
79348;SDS011;68817;48.110;11.660;2024-03-02T12:55:02;10.88;;;6.35;;
79348;SDS011;68817;48.110;11.660;2024-03-02T12:57:30;9.23;;;5.68;;
79348;SDS011;68817;48.110;11.660;2024-03-02T12:59:59;5.78;;;3.00;;
79348;SDS011;68817;48.110;11.660;2024-03-02T13:02:29;5.97;;;3.85;;
79348;SDS011;68817;48.110;11.660;2024-03-02T13:04:56;6.70;;;3.50;;
79348;SDS011;68817;48.110;11.660;2024-03-02T13:07:23;5.15;;;3.20;;
79348;SDS011;68817;48.110;11.660;2024-03-02T13:09:49;6.35;;;2.92;;
79348;SDS011;68817;48.110;11.660;2024-03-02T13:12:15;7.00;;;3.72;;
79348;SDS011;68817;48.110;11.660;2024-03-02T13:14:42;6.07;;;3.83;;
79348;SDS011;68817;48.110;11.660;2024-03-02T13:17:08;9.95;;;5.70;;
79348;SDS011;68817;48.110;11.660;2024-03-02T13:19:34;20.23;;;7.60;;
79348;SDS011;68817;48.110;11.660;2024-03-02T13:21:59;12.80;;;7.47;;
79348;SDS011;68817;48.110;11.660;2024-03-02T13:24:26;12.20;;;7.13;;
79348;SDS011;68817;48.110;11.660;2024-03-02T13:26:54;15.18;;;8.70;;
79348;SDS011;68817;48.110;11.660;2024-03-02T13:29:21;15.45;;;9.55;;
79348;SDS011;68817;48.110;11.660;2024-03-02T13:31:47;13.73;;;8.27;;
79348;SDS011;68817;48.110;11.660;2024-03-02T13:34:13;16.10;;;9.27;;
79348;SDS011;68817;48.110;11.660;2024-03-02T13:36:38;17.10;;;9.38;;
79348;SDS011;68817;48.110;11.660;2024-03-02T13:39:04;15.95;;;9.27;;
79348;SDS011;68817;48.110;11.660;2024-03-02T13:41:31;16.17;;;9.80;;
79348;SDS011;68817;48.110;11.660;2024-03-02T13:43:57;16.95;;;8.57;;
79348;SDS011;68817;48.110;11.660;2024-03-02T13:46:25;13.50;;;8.07;;
79348;SDS011;68817;48.110;11.660;2024-03-02T13:48:50;17.88;;;9.48;;
79348;SDS011;68817;48.110;11.660;2024-03-02T13:51:16;14.93;;;8.32;;
79348;SDS011;68817;48.110;11.660;2024-03-02T13:53:42;12.68;;;5.90;;
79348;SDS011;68817;48.110;11.660;2024-03-02T13:56:07;9.15;;;5.07;;
79348;SDS011;68817;48.110;11.660;2024-03-02T13:58:32;9.18;;;4.25;;
79348;SDS011;68817;48.110;11.660;2024-03-02T14:00:58;7.60;;;3.95;;
79348;SDS011;68817;48.110;11.660;2024-03-02T14:03:24;6.97;;;4.25;;
79348;SDS011;68817;48.110;11.660;2024-03-02T14:05:49;7.82;;;3.65;;
79348;SDS011;68817;48.110;11.660;2024-03-02T14:08:15;5.97;;;3.83;;
79348;SDS011;68817;48.110;11.660;2024-03-02T14:10:41;7.95;;;3.97;;
79348;SDS011;68817;48.110;11.660;2024-03-02T14:13:07;9.50;;;3.95;;
79348;SDS011;68817;48.110;11.660;2024-03-02T14:15:33;7.75;;;3.97;;
79348;SDS011;68817;48.110;11.660;2024-03-02T14:17:58;9.18;;;4.10;;
79348;SDS011;68817;48.110;11.660;2024-03-02T14:20:24;8.65;;;4.65;;
79348;SDS011;68817;48.110;11.660;2024-03-02T14:22:49;15.48;;;8.13;;
79348;SDS011;68817;48.110;11.660;2024-03-02T14:25:18;15.88;;;8.35;;
79348;SDS011;68817;48.110;11.660;2024-03-02T14:27:44;14.57;;;7.80;;
79348;SDS011;68817;48.110;11.660;2024-03-02T14:30:09;8.65;;;4.57;;
79348;SDS011;68817;48.110;11.660;2024-03-02T14:32:35;9.13;;;4.20;;